createdAt,value
2018-07-17T00:00:42.594Z,99.90
2018-07-17T00:03:10.909Z,99.90
2018-07-17T00:05:39.001Z,99.90
2018-07-17T00:08:07.127Z,99.90
2018-07-17T00:10:35.221Z,99.90
2018-07-17T00:13:03.342Z,99.90
2018-07-17T00:15:31.441Z,99.90
2018-07-17T00:17:59.554Z,99.90
2018-07-17T00:20:27.657Z,99.90
2018-07-17T00:22:55.776Z,99.90
2018-07-17T00:25:23.866Z,99.90
2018-07-17T00:27:51.992Z,99.90
2018-07-17T00:30:20.103Z,99.90
2018-07-17T00:32:48.218Z,99.90
2018-07-17T00:35:16.317Z,99.90
2018-07-17T00:37:44.482Z,99.90
2018-07-17T00:40:12.590Z,99.90
2018-07-17T00:42:40.698Z,99.90
2018-07-17T00:45:08.829Z,99.90
2018-07-17T00:47:37.038Z,99.90
2018-07-17T00:50:05.190Z,99.90
2018-07-17T00:52:33.761Z,99.90
2018-07-17T00:55:01.882Z,99.90
2018-07-17T00:57:30.013Z,99.90
2018-07-17T00:59:58.148Z,99.90
2018-07-17T01:02:31.790Z,99.90
2018-07-17T01:05:05.405Z,99.90
2018-07-17T01:07:39.054Z,99.90
2018-07-17T01:10:12.537Z,99.90
2018-07-17T01:12:39.945Z,99.90
2018-07-17T01:15:28.318Z,99.90
2018-07-17T01:17:56.486Z,99.90
2018-07-17T01:20:24.605Z,99.90
2018-07-17T01:22:52.722Z,99.90
2018-07-17T01:25:20.878Z,99.90
2018-07-17T01:27:49.041Z,99.90
2018-07-17T01:30:17.149Z,99.90
2018-07-17T01:32:45.278Z,99.90
2018-07-17T01:35:13.399Z,99.90
2018-07-17T01:37:41.525Z,99.90
2018-07-17T01:40:09.638Z,99.90
2018-07-17T01:42:37.782Z,99.90
2018-07-17T01:45:05.922Z,99.90
2018-07-17T01:47:34.042Z,99.90
2018-07-17T01:50:02.181Z,99.90
2018-07-17T01:52:30.307Z,99.90
2018-07-17T01:54:58.441Z,99.90
2018-07-17T01:57:26.544Z,99.90
2018-07-17T01:59:54.651Z,99.90
2018-07-17T02:02:22.749Z,99.90
2018-07-17T02:04:50.914Z,99.90
2018-07-17T02:07:18.993Z,99.90
2018-07-17T02:09:47.144Z,99.90
2018-07-17T02:12:15.247Z,99.90
2018-07-17T02:14:43.361Z,99.90
2018-07-17T02:17:11.538Z,99.90
2018-07-17T02:19:39.641Z,99.90
2018-07-17T02:22:07.745Z,99.90
2018-07-17T02:24:35.872Z,99.90
2018-07-17T02:27:03.970Z,99.90
2018-07-17T02:29:32.086Z,99.90
2018-07-17T02:32:00.212Z,99.90
2018-07-17T02:34:28.309Z,99.90
2018-07-17T02:36:56.405Z,99.90
2018-07-17T02:39:24.516Z,99.90
2018-07-17T02:41:52.619Z,99.90
2018-07-17T02:44:20.725Z,99.90
2018-07-17T02:46:48.844Z,99.90
2018-07-17T02:49:16.945Z,99.90
2018-07-17T02:51:45.049Z,99.90
2018-07-17T02:54:13.165Z,99.90
2018-07-17T02:56:41.267Z,99.90
2018-07-17T02:59:09.438Z,99.90
2018-07-17T03:04:05.446Z,99.90
2018-07-17T03:06:33.549Z,99.90
2018-07-17T03:09:01.691Z,99.90
2018-07-17T03:11:29.830Z,99.90
2018-07-17T03:13:57.933Z,99.90
2018-07-17T03:16:26.047Z,99.90
2018-07-17T03:18:54.169Z,99.90
2018-07-17T03:21:22.267Z,99.90
2018-07-17T03:23:50.362Z,99.90
2018-07-17T03:26:18.477Z,99.90
2018-07-17T03:28:46.578Z,99.90
2018-07-17T03:31:14.689Z,99.90
2018-07-17T03:33:42.793Z,99.90
2018-07-17T03:36:10.923Z,99.90
2018-07-17T03:38:39.087Z,99.90
2018-07-17T03:41:07.200Z,99.90
2018-07-17T03:43:35.375Z,99.90
2018-07-17T03:46:03.480Z,99.90
2018-07-17T03:48:31.594Z,99.90
2018-07-17T03:50:59.698Z,99.90
2018-07-17T03:53:27.793Z,99.90
2018-07-17T03:55:55.913Z,99.90
2018-07-17T03:58:24.028Z,99.90
2018-07-17T04:00:52.152Z,99.90
2018-07-17T04:03:20.471Z,99.90
2018-07-17T04:05:48.595Z,99.90
2018-07-17T04:08:16.706Z,99.90
2018-07-17T04:10:44.821Z,99.90
2018-07-17T04:13:12.940Z,99.90
2018-07-17T04:15:41.057Z,99.90
2018-07-17T04:18:09.175Z,99.90
2018-07-17T04:20:37.294Z,99.90
2018-07-17T04:23:05.962Z,99.90
2018-07-17T04:25:34.086Z,99.90
2018-07-17T04:28:02.226Z,99.90
2018-07-17T04:30:30.339Z,99.90
2018-07-17T04:32:58.471Z,99.90
2018-07-17T04:35:26.582Z,99.90
2018-07-17T04:37:54.782Z,99.90
2018-07-17T04:40:22.916Z,99.90
2018-07-17T04:42:51.039Z,99.90
2018-07-17T04:45:19.160Z,99.90
2018-07-17T04:47:47.282Z,99.90
2018-07-17T04:50:15.406Z,99.90
2018-07-17T04:52:43.542Z,99.90
2018-07-17T04:55:11.674Z,99.90
2018-07-17T04:57:39.793Z,99.90
2018-07-17T05:00:07.912Z,99.90
2018-07-17T05:02:36.025Z,99.90
2018-07-17T05:05:04.325Z,99.90
2018-07-17T05:07:32.441Z,99.90
2018-07-17T05:10:00.549Z,99.90
2018-07-17T05:12:28.665Z,99.90
2018-07-17T05:14:56.770Z,99.90
2018-07-17T05:17:24.888Z,99.90
2018-07-17T05:19:52.994Z,99.90
2018-07-17T05:22:21.134Z,99.90
2018-07-17T05:24:49.256Z,99.90
2018-07-17T05:27:17.384Z,99.90
2018-07-17T05:29:45.494Z,99.90
2018-07-17T05:32:13.617Z,99.90
2018-07-17T05:34:41.737Z,99.90
2018-07-17T05:37:09.849Z,99.90
2018-07-17T05:39:37.969Z,99.90
2018-07-17T05:42:06.089Z,99.90
2018-07-17T05:44:34.207Z,99.90
2018-07-17T05:47:02.333Z,99.90
2018-07-17T05:49:30.460Z,99.90
2018-07-17T05:51:58.669Z,99.90
2018-07-17T05:54:26.831Z,99.90
2018-07-17T05:56:54.966Z,99.90
2018-07-17T05:59:23.238Z,99.90
2018-07-17T06:01:51.363Z,99.90
2018-07-17T06:04:19.515Z,99.90
2018-07-17T06:06:47.673Z,99.90
2018-07-17T06:09:15.813Z,99.90
2018-07-17T06:14:11.833Z,99.90
2018-07-17T06:16:39.975Z,99.90
2018-07-17T06:19:08.208Z,99.90
2018-07-17T06:21:36.248Z,99.90
2018-07-17T06:24:04.386Z,99.90
2018-07-17T06:26:32.525Z,99.90
2018-07-17T06:29:00.664Z,99.90
2018-07-17T06:31:28.825Z,99.90
2018-07-17T06:33:56.977Z,99.90
2018-07-17T06:36:25.107Z,99.90
2018-07-17T06:38:53.236Z,99.90
2018-07-17T06:41:21.360Z,99.90
2018-07-17T06:43:49.497Z,99.90
2018-07-17T06:46:17.679Z,99.90
2018-07-17T06:48:45.814Z,99.90
2018-07-17T06:51:13.938Z,99.90
2018-07-17T06:53:42.079Z,99.90
2018-07-17T06:56:10.201Z,99.90
2018-07-17T06:58:38.328Z,99.90
2018-07-17T07:01:06.470Z,99.90
2018-07-17T07:03:34.605Z,99.90
2018-07-17T07:06:02.724Z,99.90
2018-07-17T07:08:30.849Z,99.90
2018-07-17T07:10:59.009Z,99.90
2018-07-17T07:13:27.174Z,99.90
2018-07-17T07:15:55.303Z,99.90
2018-07-17T07:18:23.408Z,99.90
2018-07-17T07:20:51.545Z,99.90
2018-07-17T07:23:19.728Z,99.90
2018-07-17T07:25:47.806Z,99.90
2018-07-17T07:28:15.953Z,99.90
2018-07-17T07:30:44.075Z,99.90
2018-07-17T07:33:12.196Z,99.90
2018-07-17T07:35:40.326Z,99.90
2018-07-17T07:38:08.469Z,99.90
2018-07-17T07:40:36.652Z,99.90
2018-07-17T07:43:04.741Z,99.90
2018-07-17T07:45:32.857Z,99.90
2018-07-17T07:48:00.981Z,99.90
2018-07-17T07:50:29.111Z,99.90
2018-07-17T07:52:57.258Z,99.90
2018-07-17T07:55:25.413Z,99.90
2018-07-17T07:57:53.525Z,99.90
2018-07-17T08:00:21.653Z,99.90
2018-07-17T08:02:49.792Z,99.90
2018-07-17T08:05:17.941Z,99.90
2018-07-17T08:07:46.055Z,99.90
2018-07-17T08:10:14.199Z,99.90
2018-07-17T08:12:42.325Z,99.90
2018-07-17T08:15:10.459Z,99.90
2018-07-17T08:17:38.582Z,99.90
2018-07-17T08:20:06.722Z,99.90
2018-07-17T08:22:34.857Z,99.90
2018-07-17T08:25:03.018Z,99.90
2018-07-17T08:27:31.191Z,99.90
2018-07-17T08:29:59.315Z,99.90
2018-07-17T08:32:27.446Z,99.90
2018-07-17T08:34:55.579Z,99.90
2018-07-17T08:37:23.707Z,99.90
2018-07-17T08:39:51.853Z,99.90
2018-07-17T08:42:20.022Z,99.90
2018-07-17T08:44:48.221Z,99.90
2018-07-17T08:47:16.334Z,99.90
2018-07-17T08:49:44.476Z,99.90
2018-07-17T08:52:12.598Z,99.90
2018-07-17T08:54:40.822Z,99.90
2018-07-17T08:57:08.869Z,99.90
2018-07-17T08:59:36.978Z,99.90
2018-07-17T09:02:05.134Z,99.90
2018-07-17T09:04:33.245Z,99.90
2018-07-17T09:07:01.524Z,99.90
2018-07-17T09:09:29.650Z,99.30
2018-07-17T09:11:57.781Z,99.90
2018-07-17T09:14:25.887Z,98.10
2018-07-17T09:16:54.011Z,99.90
2018-07-17T09:19:22.126Z,95.20
2018-07-17T09:21:50.246Z,94.30
2018-07-17T09:24:18.372Z,96.40
2018-07-17T09:26:46.487Z,96.10
2018-07-17T09:29:14.596Z,94.70
2018-07-17T09:31:42.717Z,93.90
2018-07-17T09:34:10.842Z,92.30
2018-07-17T09:36:38.953Z,93.00
2018-07-17T09:39:08.254Z,88.20
2018-07-17T09:41:36.390Z,88.70
2018-07-17T09:44:04.514Z,89.20
2018-07-17T09:46:32.629Z,87.30
2018-07-17T09:49:00.732Z,87.10
2018-07-17T09:51:28.865Z,83.50
2018-07-17T09:53:56.997Z,81.80
2018-07-17T09:56:25.189Z,86.10
2018-07-17T09:58:53.366Z,92.70
2018-07-17T10:02:25.478Z,90.90
2018-07-17T10:04:53.602Z,90.40
2018-07-17T10:07:21.745Z,85.20
2018-07-17T10:09:49.936Z,80.70
2018-07-17T10:12:18.007Z,79.20
2018-07-17T10:14:46.146Z,76.80
2018-07-17T10:17:14.282Z,76.90
2018-07-17T10:19:42.406Z,75.60
2018-07-17T10:22:10.550Z,71.50
2018-07-17T10:24:38.680Z,72.20
2018-07-17T10:29:34.727Z,71.80
2018-07-17T10:32:02.916Z,67.60
2018-07-17T10:34:30.996Z,65.90
2018-07-17T10:36:59.112Z,66.20
2018-07-17T10:39:27.246Z,65.50
2018-07-17T10:41:55.370Z,68.20
2018-07-17T10:44:23.518Z,64.50
2018-07-17T10:46:51.665Z,61.90
2018-07-17T10:49:19.795Z,62.80
2018-07-17T10:51:47.946Z,64.50
2018-07-17T10:54:16.111Z,61.50
2018-07-17T10:56:44.248Z,64.60
2018-07-17T10:59:12.387Z,60.70
2018-07-17T11:01:40.523Z,62.50
2018-07-17T11:04:08.660Z,60.20
2018-07-17T11:06:36.788Z,60.10
2018-07-17T11:09:05.553Z,64.70
2018-07-17T11:11:33.701Z,66.80
2018-07-17T11:14:01.829Z,63.50
2018-07-17T11:16:30.013Z,61.20
2018-07-17T11:18:58.182Z,58.50
2018-07-17T11:21:26.313Z,54.30
2018-07-17T11:23:54.432Z,59.00
2018-07-17T11:26:22.560Z,57.40
2018-07-17T11:28:50.714Z,58.60
2018-07-17T11:31:19.019Z,57.10
2018-07-17T11:33:47.161Z,55.10
2018-07-17T11:36:15.282Z,56.30
2018-07-17T11:38:43.568Z,56.90
2018-07-17T11:41:11.635Z,53.70
2018-07-17T11:43:39.809Z,54.30
2018-07-17T11:46:07.950Z,53.50
2018-07-17T11:48:36.077Z,54.90
2018-07-17T11:51:04.210Z,57.80
2018-07-17T11:53:32.351Z,55.80
2018-07-17T11:56:00.502Z,54.40
2018-07-17T11:58:28.689Z,55.80
2018-07-17T12:00:56.951Z,56.50
2018-07-17T12:03:25.098Z,57.80
2018-07-17T12:05:53.330Z,56.00
2018-07-17T12:08:21.373Z,54.90
2018-07-17T12:10:49.511Z,55.10
2018-07-17T12:13:17.641Z,56.20
2018-07-17T12:15:45.777Z,56.40
2018-07-17T12:18:13.917Z,57.40
2018-07-17T12:20:42.068Z,58.10
2018-07-17T12:23:10.201Z,57.50
2018-07-17T12:25:38.329Z,57.00
2018-07-17T12:28:06.578Z,55.40
2018-07-17T12:30:34.619Z,56.00
2018-07-17T12:33:02.737Z,55.30
2018-07-17T12:35:30.871Z,54.90
2018-07-17T12:37:58.982Z,57.10
2018-07-17T12:40:27.121Z,58.50
2018-07-17T12:42:55.248Z,57.60
2018-07-17T12:45:23.377Z,59.90
2018-07-17T12:47:51.524Z,57.70
2018-07-17T12:50:19.662Z,57.30
2018-07-17T12:52:47.793Z,58.00
2018-07-17T12:55:15.974Z,56.40
2018-07-17T12:57:44.046Z,55.30
2018-07-17T13:00:12.197Z,58.20
2018-07-17T13:02:40.383Z,57.90
2018-07-17T13:05:08.457Z,60.10
2018-07-17T13:07:36.577Z,59.90
2018-07-17T13:10:05.205Z,62.40
2018-07-17T13:12:33.351Z,62.30
2018-07-17T13:15:01.491Z,62.80
2018-07-17T13:17:29.704Z,60.80
2018-07-17T13:19:57.734Z,64.60
2018-07-17T13:22:25.914Z,60.30
2018-07-17T13:27:21.965Z,62.30
2018-07-17T13:29:50.090Z,64.00
2018-07-17T13:32:18.240Z,62.90
2018-07-17T13:34:46.549Z,64.40
2018-07-17T13:37:14.674Z,63.60
2018-07-17T13:39:42.814Z,61.60
2018-07-17T13:42:10.946Z,64.10
2018-07-17T13:44:39.167Z,67.40
2018-07-17T13:47:07.278Z,68.40
2018-07-17T13:49:35.397Z,76.80
2018-07-17T13:52:03.531Z,84.70
2018-07-17T13:54:31.653Z,87.90
2018-07-17T13:56:59.793Z,99.90
2018-07-17T13:59:27.943Z,99.90
2018-07-17T14:01:56.062Z,99.90
2018-07-17T14:04:24.235Z,99.90
2018-07-17T14:06:52.440Z,99.90
2018-07-17T14:09:20.515Z,99.90
2018-07-17T14:11:48.646Z,99.90
2018-07-17T14:14:16.793Z,99.90
2018-07-17T14:16:44.981Z,99.90
2018-07-17T14:19:13.158Z,99.90
2018-07-17T14:21:41.297Z,99.90
2018-07-17T14:24:09.416Z,99.90
2018-07-17T14:26:37.610Z,99.90
2018-07-17T14:29:05.811Z,99.90
2018-07-17T14:31:33.931Z,99.90
2018-07-17T14:34:02.083Z,99.90
2018-07-17T14:36:30.257Z,99.90
2018-07-17T14:38:58.390Z,99.90
2018-07-17T14:41:26.963Z,99.90
2018-07-17T14:43:55.007Z,99.90
2018-07-17T14:46:23.146Z,99.90
2018-07-17T14:48:51.266Z,99.90
2018-07-17T14:51:19.415Z,99.90
2018-07-17T14:53:47.543Z,99.90
2018-07-17T14:56:15.674Z,99.90
2018-07-17T14:58:43.811Z,99.90
2018-07-17T15:01:11.957Z,99.90
2018-07-17T15:03:40.081Z,99.90
2018-07-17T15:06:08.214Z,99.90
2018-07-17T15:08:36.364Z,99.90
2018-07-17T15:11:04.506Z,99.90
2018-07-17T15:13:33.272Z,99.90
2018-07-17T15:16:01.398Z,99.90
2018-07-17T15:18:29.529Z,99.90
2018-07-17T15:20:57.863Z,99.90
2018-07-17T15:23:25.990Z,99.90
2018-07-17T15:25:54.122Z,99.90
2018-07-17T15:28:22.262Z,99.90
2018-07-17T15:30:51.411Z,99.90
2018-07-17T15:33:19.556Z,99.90
2018-07-17T15:35:47.741Z,99.90
2018-07-17T15:38:15.903Z,99.90
2018-07-17T15:40:44.072Z,99.90
2018-07-17T15:43:12.190Z,99.90
2018-07-17T15:45:40.442Z,99.90
2018-07-17T15:48:08.552Z,99.90
2018-07-17T15:50:36.686Z,99.90
2018-07-17T15:53:04.865Z,99.90
2018-07-17T15:55:32.990Z,99.90
2018-07-17T15:58:01.149Z,99.70
2018-07-17T16:00:29.262Z,99.90
2018-07-17T16:02:57.406Z,99.90
2018-07-17T16:05:25.546Z,99.10
2018-07-17T16:07:53.690Z,98.80
2018-07-17T16:10:21.815Z,98.20
2018-07-17T16:12:49.960Z,96.90
2018-07-17T16:15:18.122Z,98.20
2018-07-17T16:17:46.309Z,98.00
2018-07-17T16:20:14.624Z,98.40
2018-07-17T16:22:42.699Z,99.50
2018-07-17T16:25:10.834Z,99.10
2018-07-17T16:27:40.848Z,99.80
2018-07-17T16:30:09.016Z,99.20
2018-07-17T16:32:37.212Z,99.00
2018-07-17T16:35:05.383Z,99.70
2018-07-17T16:40:01.403Z,99.90
2018-07-17T16:42:29.542Z,99.90
2018-07-17T16:44:57.683Z,99.90
2018-07-17T16:47:25.817Z,99.90
2018-07-17T16:49:54.045Z,99.90
2018-07-17T16:52:22.166Z,99.90
2018-07-17T16:54:50.319Z,99.90
2018-07-17T16:57:18.482Z,99.90
2018-07-17T16:59:46.686Z,99.90
2018-07-17T17:02:14.830Z,99.90
2018-07-17T17:04:42.986Z,99.90
2018-07-17T17:07:11.138Z,99.90
2018-07-17T17:09:39.350Z,99.90
2018-07-17T17:12:07.482Z,99.90
2018-07-17T17:14:35.618Z,99.90
2018-07-17T17:17:03.769Z,99.90
2018-07-17T17:19:31.998Z,99.90
2018-07-17T17:24:28.163Z,99.90
2018-07-17T17:26:56.215Z,99.90
2018-07-17T17:29:24.455Z,99.90
2018-07-17T17:31:52.573Z,99.90
2018-07-17T17:34:20.753Z,99.90
2018-07-17T17:36:48.987Z,99.90
2018-07-17T17:39:17.086Z,99.90
2018-07-17T17:41:45.195Z,99.90
2018-07-17T17:44:13.338Z,99.90
2018-07-17T17:46:41.447Z,99.90
2018-07-17T17:49:09.613Z,99.90
2018-07-17T17:51:39.355Z,99.90
2018-07-17T17:54:07.492Z,99.90
2018-07-17T17:56:35.668Z,99.90
2018-07-17T17:59:03.812Z,99.90
2018-07-17T18:01:32.853Z,99.90
2018-07-17T18:04:00.978Z,99.90
2018-07-17T18:06:29.137Z,99.90
2018-07-17T18:08:57.250Z,99.90
2018-07-17T18:11:25.390Z,99.90
2018-07-17T18:13:53.517Z,99.90
2018-07-17T18:16:21.666Z,99.90
2018-07-17T18:18:49.933Z,99.90
2018-07-17T18:21:18.193Z,99.90
2018-07-17T18:23:46.327Z,99.90
2018-07-17T18:28:42.370Z,99.90
2018-07-17T18:31:10.504Z,99.90
2018-07-17T18:33:38.636Z,99.90
2018-07-17T18:36:06.785Z,99.90
2018-07-17T18:38:34.922Z,99.90
2018-07-17T18:41:03.066Z,99.90
2018-07-17T18:43:31.206Z,99.90
2018-07-17T18:45:59.358Z,99.90
2018-07-17T18:48:27.509Z,99.90
2018-07-17T18:50:55.669Z,99.90
2018-07-17T18:53:23.849Z,99.90
2018-07-17T18:55:52.003Z,99.90
2018-07-17T18:58:20.162Z,99.90
2018-07-17T19:00:48.348Z,99.90
2018-07-17T19:03:16.473Z,99.90
2018-07-17T19:05:44.597Z,99.90
2018-07-17T19:08:12.741Z,99.90
2018-07-17T19:10:40.883Z,99.90
2018-07-17T19:13:09.030Z,99.90
2018-07-17T19:15:37.187Z,99.90
2018-07-17T19:18:05.317Z,99.90
2018-07-17T19:20:33.463Z,99.90
2018-07-17T19:23:01.603Z,99.90
2018-07-17T19:25:29.740Z,99.90
2018-07-17T19:27:57.878Z,99.90
2018-07-17T19:30:26.027Z,99.90
2018-07-17T19:32:54.169Z,99.90
2018-07-17T19:35:22.384Z,99.90
2018-07-17T19:37:50.530Z,99.90
2018-07-17T19:40:18.657Z,99.90
2018-07-17T19:42:46.816Z,99.90
2018-07-17T19:45:14.953Z,99.90
2018-07-17T19:47:43.129Z,99.90
2018-07-17T19:50:11.299Z,99.90
2018-07-17T19:52:39.433Z,99.90
2018-07-17T19:55:07.570Z,99.90
2018-07-17T19:57:35.720Z,99.90
2018-07-17T20:00:04.522Z,99.90
2018-07-17T20:02:32.695Z,99.90
2018-07-17T20:05:00.849Z,99.90
2018-07-17T20:07:29.016Z,99.90
2018-07-17T20:09:57.145Z,99.90
2018-07-17T20:12:25.334Z,99.90
2018-07-17T20:17:21.940Z,99.90
2018-07-17T20:19:50.093Z,99.90
2018-07-17T20:22:18.221Z,99.90
2018-07-17T20:24:46.362Z,99.90
2018-07-17T20:27:14.511Z,99.90
2018-07-17T20:29:42.658Z,99.90
2018-07-17T20:32:11.011Z,99.90
2018-07-17T20:34:39.155Z,99.90
2018-07-17T20:37:07.415Z,99.90
2018-07-17T20:39:35.553Z,99.90
2018-07-17T20:42:03.695Z,99.90
2018-07-17T20:44:31.929Z,99.90
2018-07-17T20:47:00.059Z,99.90
2018-07-17T20:49:28.212Z,99.90
2018-07-17T20:51:56.362Z,99.90
2018-07-17T20:54:24.505Z,99.90
2018-07-17T20:56:52.649Z,99.90
2018-07-17T21:01:48.719Z,99.90
2018-07-17T21:04:16.864Z,99.90
2018-07-17T21:06:44.989Z,99.90
2018-07-17T21:09:13.133Z,99.90
2018-07-17T21:11:41.380Z,99.90
2018-07-17T21:14:09.529Z,99.90
2018-07-17T21:16:37.672Z,99.90
2018-07-17T21:19:05.849Z,99.90
2018-07-17T21:21:33.980Z,99.90
2018-07-17T21:24:02.182Z,99.90
2018-07-17T21:26:30.317Z,99.90
2018-07-17T21:28:58.453Z,99.90
2018-07-17T21:31:26.606Z,99.90
2018-07-17T21:33:54.737Z,99.90
2018-07-17T21:36:22.916Z,99.90
2018-07-17T21:38:51.052Z,99.90
2018-07-17T21:41:19.193Z,99.90
2018-07-17T21:43:47.353Z,99.90
2018-07-17T21:46:15.492Z,99.90
2018-07-17T21:48:43.622Z,99.90
2018-07-17T21:51:11.789Z,99.90
2018-07-17T21:53:39.913Z,99.90
2018-07-17T21:56:08.049Z,99.90
2018-07-17T21:58:36.197Z,99.90
2018-07-17T22:01:04.322Z,99.90
2018-07-17T22:03:32.454Z,99.90
2018-07-17T22:06:00.593Z,99.90
2018-07-17T22:08:28.723Z,99.90
2018-07-17T22:10:56.883Z,99.90
2018-07-17T22:13:25.026Z,99.90
2018-07-17T22:15:53.186Z,99.90
2018-07-17T22:18:21.351Z,99.90
2018-07-17T22:23:17.374Z,99.90
2018-07-17T22:25:45.503Z,99.90
2018-07-17T22:28:13.626Z,99.90
2018-07-17T22:30:41.788Z,99.90
2018-07-17T22:33:09.937Z,99.90
2018-07-17T22:35:38.064Z,99.90
2018-07-17T22:38:06.193Z,99.90
2018-07-17T22:40:34.345Z,99.90
2018-07-17T22:43:02.465Z,99.90
2018-07-17T22:45:30.589Z,99.90
2018-07-17T22:47:58.737Z,99.90
2018-07-17T22:50:26.865Z,99.90
2018-07-17T22:52:55.007Z,99.90
2018-07-17T22:55:23.148Z,99.90
2018-07-17T22:57:51.317Z,99.90
2018-07-17T23:00:19.437Z,99.90
2018-07-17T23:02:47.566Z,99.90
2018-07-17T23:05:15.746Z,99.90
2018-07-17T23:07:43.878Z,99.90
2018-07-17T23:10:12.006Z,99.90
2018-07-17T23:12:40.141Z,99.90
2018-07-17T23:15:08.309Z,99.90
2018-07-17T23:20:04.761Z,99.90
2018-07-17T23:22:39.870Z,99.90
2018-07-17T23:25:08.112Z,99.90
2018-07-17T23:27:36.217Z,99.90
2018-07-17T23:30:04.517Z,99.90
2018-07-17T23:32:32.669Z,99.90
2018-07-17T23:35:00.808Z,99.90
2018-07-17T23:37:28.938Z,99.90
2018-07-17T23:39:57.059Z,99.90
2018-07-17T23:42:25.180Z,99.90
2018-07-17T23:44:53.308Z,99.90
2018-07-17T23:47:21.465Z,99.90
2018-07-17T23:49:49.577Z,99.90
2018-07-17T23:52:17.713Z,99.90
2018-07-17T23:54:45.842Z,99.90
2018-07-17T23:57:13.977Z,99.90
2018-07-17T23:59:42.264Z,99.90
